createdAt,value
2018-03-27T00:00:38.506Z,47.53
2018-03-27T00:01:41.716Z,45.42
2018-03-27T00:02:44.966Z,48.20
2018-03-27T00:03:48.250Z,46.53
2018-03-27T00:04:51.477Z,48.25
2018-03-27T00:05:54.720Z,46.05
2018-03-27T00:06:57.960Z,51.03
2018-03-27T00:08:01.217Z,46.92
2018-03-27T00:09:05.200Z,47.35
2018-03-27T00:10:09.168Z,48.22
2018-03-27T00:11:12.464Z,47.78
2018-03-27T00:12:15.673Z,49.25
2018-03-27T00:13:19.649Z,49.05
2018-03-27T00:14:22.860Z,48.60
2018-03-27T00:15:26.882Z,46.88
2018-03-27T00:16:30.869Z,48.28
2018-03-27T00:17:34.064Z,46.53
2018-03-27T00:18:37.287Z,45.90
2018-03-27T00:19:40.497Z,51.00
2018-03-27T00:20:44.491Z,48.97
2018-03-27T00:21:48.581Z,49.03
2018-03-27T00:22:51.821Z,46.90
2018-03-27T00:23:55.047Z,47.97
2018-03-27T00:24:59.770Z,47.17
2018-03-27T00:26:03.014Z,46.72
2018-03-27T00:27:05.742Z,49.03
2018-03-27T00:28:21.606Z,47.20
2018-03-27T00:29:36.683Z,47.60
2018-03-27T00:30:52.543Z,46.60
2018-03-27T00:32:07.625Z,48.58
2018-03-27T00:33:23.539Z,46.10
2018-03-27T00:34:38.544Z,48.10
2018-03-27T00:35:53.755Z,43.40
2018-03-27T00:37:08.780Z,46.75
2018-03-27T00:38:24.659Z,49.08
2018-03-27T00:39:40.465Z,47.53
2018-03-27T00:40:43.199Z,44.80
2018-03-27T00:43:29.491Z,43.13
2018-03-27T00:44:32.731Z,46.22
2018-03-27T00:45:35.940Z,46.53
2018-03-27T00:46:39.177Z,45.33
2018-03-27T00:47:42.410Z,46.60
2018-03-27T00:48:45.644Z,47.05
2018-03-27T00:49:48.870Z,46.72
2018-03-27T00:50:52.106Z,47.95
2018-03-27T00:51:55.633Z,45.92
2018-03-27T00:52:59.004Z,47.60
2018-03-27T00:54:02.218Z,46.05
2018-03-27T00:55:05.442Z,47.10
2018-03-27T00:56:08.662Z,47.33
2018-03-27T00:57:11.912Z,49.95
2018-03-27T00:58:15.871Z,46.17
2018-03-27T00:59:19.084Z,46.17
2018-03-27T01:00:23.069Z,46.25
2018-03-27T01:01:27.076Z,47.13
2018-03-27T01:02:30.271Z,45.78
2018-03-27T01:03:33.519Z,46.20
2018-03-27T01:04:36.732Z,46.55
2018-03-27T01:05:39.956Z,46.28
2018-03-27T01:06:43.163Z,48.80
2018-03-27T01:07:46.379Z,47.70
2018-03-27T01:08:49.648Z,47.40
2018-03-27T01:09:53.630Z,47.70
2018-03-27T01:10:56.983Z,44.33
2018-03-27T01:12:00.157Z,46.28
2018-03-27T01:13:03.386Z,45.80
2018-03-27T01:14:06.602Z,46.30
2018-03-27T01:15:10.583Z,45.47
2018-03-27T01:16:14.560Z,46.08
2018-03-27T01:17:17.772Z,46.72
2018-03-27T01:18:21.759Z,46.95
2018-03-27T01:19:25.765Z,48.83
2018-03-27T01:20:28.974Z,46.30
2018-03-27T01:21:32.184Z,45.58
2018-03-27T01:22:35.419Z,46.78
2018-03-27T01:23:39.403Z,47.65
2018-03-27T01:24:42.686Z,45.80
2018-03-27T01:25:45.888Z,44.80
2018-03-27T01:26:49.877Z,48.65
2018-03-27T01:27:53.861Z,45.12
2018-03-27T01:28:57.098Z,48.00
2018-03-27T01:30:00.332Z,46.50
2018-03-27T01:31:03.557Z,47.53
2018-03-27T01:32:06.790Z,44.90
2018-03-27T01:33:10.104Z,47.92
2018-03-27T01:34:14.097Z,46.85
2018-03-27T01:35:18.081Z,45.47
2018-03-27T01:36:21.305Z,47.08
2018-03-27T01:37:24.530Z,46.30
2018-03-27T01:38:27.738Z,47.45
2018-03-27T01:39:31.739Z,46.95
2018-03-27T01:40:34.990Z,46.90
2018-03-27T01:41:38.230Z,47.83
2018-03-27T01:42:41.435Z,47.67
2018-03-27T01:43:44.663Z,46.70
2018-03-27T01:44:47.902Z,47.00
2018-03-27T01:45:51.135Z,49.00
2018-03-27T01:46:54.371Z,49.85
2018-03-27T01:47:57.616Z,49.13
2018-03-27T01:49:01.616Z,47.62
2018-03-27T01:50:05.592Z,47.13
2018-03-27T01:51:08.807Z,50.15
2018-03-27T01:52:12.032Z,48.58
2018-03-27T01:53:15.248Z,49.15
2018-03-27T01:54:18.511Z,46.13
2018-03-27T01:55:21.697Z,46.20
2018-03-27T01:56:24.960Z,47.60
2018-03-27T01:57:28.154Z,49.92
2018-03-27T01:58:31.398Z,46.33
2018-03-27T01:59:34.624Z,48.65
2018-03-27T02:00:37.840Z,48.38
2018-03-27T02:01:41.813Z,48.42
2018-03-27T02:02:45.067Z,47.55
2018-03-27T02:03:48.311Z,48.75
2018-03-27T02:04:52.298Z,46.83
2018-03-27T02:05:55.552Z,46.75
2018-03-27T02:06:58.734Z,47.08
2018-03-27T02:08:01.959Z,48.25
2018-03-27T02:09:05.960Z,46.22
2018-03-27T02:10:09.957Z,51.05
2018-03-27T02:11:19.752Z,47.58
2018-03-27T02:12:28.649Z,46.17
2018-03-27T02:13:37.489Z,48.45
2018-03-27T02:14:46.395Z,49.08
2018-03-27T02:15:55.270Z,48.28
2018-03-27T02:17:04.111Z,46.95
2018-03-27T02:18:12.997Z,46.53
2018-03-27T02:19:21.838Z,45.85
2018-03-27T02:20:30.830Z,50.72
2018-03-27T02:21:34.335Z,48.47
2018-03-27T02:22:38.021Z,47.10
2018-03-27T02:23:41.295Z,49.22
2018-03-27T02:24:45.300Z,47.70
2018-03-27T02:25:48.669Z,48.08
2018-03-27T02:26:51.863Z,49.63
2018-03-27T02:27:55.842Z,49.40
2018-03-27T02:28:59.830Z,46.85
2018-03-27T02:30:03.050Z,50.80
2018-03-27T02:31:06.272Z,51.35
2018-03-27T02:32:09.526Z,50.92
2018-03-27T02:33:12.776Z,49.25
2018-03-27T02:34:15.990Z,52.17
2018-03-27T02:35:19.232Z,49.38
2018-03-27T02:36:22.449Z,49.67
2018-03-27T02:37:25.669Z,52.80
2018-03-27T02:38:28.905Z,52.92
2018-03-27T02:39:32.913Z,49.60
2018-03-27T02:40:36.151Z,49.33
2018-03-27T02:41:39.460Z,51.55
2018-03-27T02:42:43.454Z,50.50
2018-03-27T02:43:47.449Z,49.10
2018-03-27T02:44:51.461Z,48.17
2018-03-27T02:45:55.438Z,50.22
2018-03-27T02:46:58.691Z,50.65
2018-03-27T02:48:01.943Z,51.90
2018-03-27T02:49:05.127Z,52.72
2018-03-27T02:50:08.344Z,48.65
2018-03-27T02:51:11.581Z,51.05
2018-03-27T02:52:15.687Z,51.50
2018-03-27T02:53:19.675Z,51.08
2018-03-27T02:54:23.656Z,49.47
2018-03-27T02:55:26.888Z,51.20
2018-03-27T02:56:30.093Z,51.13
2018-03-27T02:57:33.321Z,50.65
2018-03-27T02:58:37.353Z,52.25
2018-03-27T02:59:41.548Z,50.38
2018-03-27T03:00:45.603Z,52.78
2018-03-27T03:01:48.831Z,54.35
2018-03-27T03:02:52.853Z,52.22
2018-03-27T03:03:56.080Z,50.10
2018-03-27T03:04:59.301Z,53.03
2018-03-27T03:06:02.531Z,50.40
2018-03-27T03:07:05.766Z,52.85
2018-03-27T03:08:09.769Z,51.67
2018-03-27T03:09:13.763Z,53.55
2018-03-27T03:10:17.736Z,54.13
2018-03-27T03:11:20.963Z,51.72
2018-03-27T03:12:24.221Z,55.75
2018-03-27T03:13:28.206Z,54.08
2018-03-27T03:14:31.493Z,56.50
2018-03-27T03:15:34.724Z,53.10
2018-03-27T03:16:37.919Z,52.05
2018-03-27T03:17:41.198Z,56.03
2018-03-27T03:18:44.723Z,55.15
2018-03-27T03:19:47.965Z,54.72
2018-03-27T03:20:51.161Z,54.63
2018-03-27T03:21:54.382Z,52.92
2018-03-27T03:22:58.395Z,54.60
2018-03-27T03:24:02.386Z,55.12
2018-03-27T03:25:05.637Z,52.65
2018-03-27T03:26:08.862Z,53.45
2018-03-27T03:27:12.072Z,53.65
2018-03-27T03:28:15.508Z,52.67
2018-03-27T03:29:18.674Z,53.38
2018-03-27T03:30:21.915Z,55.45
2018-03-27T03:31:25.282Z,56.08
2018-03-27T03:32:28.509Z,54.47
2018-03-27T03:33:31.810Z,54.03
2018-03-27T03:34:35.117Z,53.47
2018-03-27T03:35:38.629Z,52.75
2018-03-27T03:36:42.855Z,54.63
2018-03-27T03:37:46.072Z,52.97
2018-03-27T03:38:49.301Z,52.15
2018-03-27T03:39:53.292Z,53.95
2018-03-27T03:40:57.343Z,51.10
2018-03-27T03:42:00.716Z,54.63
2018-03-27T03:43:03.923Z,55.22
2018-03-27T03:44:07.157Z,54.70
2018-03-27T03:45:11.280Z,55.38
2018-03-27T03:46:14.637Z,54.70
2018-03-27T03:47:18.082Z,52.85
2018-03-27T03:48:21.478Z,52.55
2018-03-27T03:49:24.719Z,53.17
2018-03-27T03:50:28.176Z,54.20
2018-03-27T03:51:31.393Z,53.22
2018-03-27T03:52:34.769Z,53.10
2018-03-27T03:53:38.733Z,54.22
2018-03-27T03:54:41.963Z,56.70
2018-03-27T03:55:45.195Z,55.78
2018-03-27T03:56:48.483Z,53.33
2018-03-27T03:57:51.669Z,50.42
2018-03-27T03:58:55.666Z,55.28
2018-03-27T04:00:30.005Z,53.53
2018-03-27T04:01:33.997Z,51.00
2018-03-27T04:02:37.211Z,54.40
2018-03-27T04:03:40.452Z,55.58
2018-03-27T04:04:43.652Z,54.45
2018-03-27T04:05:47.635Z,54.28
2018-03-27T04:06:51.626Z,53.22
2018-03-27T04:07:54.848Z,53.28
2018-03-27T04:08:58.124Z,55.33
2018-03-27T04:10:01.354Z,54.30
2018-03-27T04:11:04.591Z,52.47
2018-03-27T04:12:08.046Z,54.47
2018-03-27T04:13:11.359Z,53.80
2018-03-27T04:14:14.623Z,53.25
2018-03-27T04:15:18.604Z,53.92
2018-03-27T04:16:21.832Z,54.33
2018-03-27T04:17:25.055Z,53.22
2018-03-27T04:18:28.269Z,53.67
2018-03-27T04:19:32.259Z,54.55
2018-03-27T04:20:35.464Z,52.70
2018-03-27T04:21:39.437Z,54.75
2018-03-27T04:22:42.691Z,53.55
2018-03-27T04:23:45.920Z,54.25
2018-03-27T04:24:49.944Z,55.33
2018-03-27T04:25:53.195Z,55.00
2018-03-27T04:26:56.761Z,53.75
2018-03-27T04:28:00.042Z,53.75
2018-03-27T04:29:03.242Z,55.17
2018-03-27T04:30:06.463Z,53.80
2018-03-27T04:31:09.963Z,54.47
2018-03-27T04:32:13.201Z,55.22
2018-03-27T04:33:16.439Z,54.25
2018-03-27T04:34:19.647Z,55.45
2018-03-27T04:35:23.648Z,55.72
2018-03-27T04:36:26.883Z,55.55
2018-03-27T04:37:30.085Z,52.15
2018-03-27T04:38:33.312Z,51.85
2018-03-27T04:39:36.546Z,56.97
2018-03-27T04:40:39.828Z,53.20
2018-03-27T04:41:43.161Z,57.67
2018-03-27T04:42:46.380Z,54.72
2018-03-27T04:43:49.615Z,55.70
2018-03-27T04:44:52.845Z,53.80
2018-03-27T04:45:56.078Z,54.33
2018-03-27T04:46:59.302Z,57.33
2018-03-27T04:48:03.281Z,55.83
2018-03-27T04:49:06.501Z,55.17
2018-03-27T04:50:09.749Z,60.00
2018-03-27T04:51:12.958Z,57.40
2018-03-27T04:52:16.942Z,57.38
2018-03-27T04:53:21.139Z,56.20
2018-03-27T04:54:24.640Z,54.53
2018-03-27T04:55:27.865Z,58.90
2018-03-27T04:56:31.331Z,58.08
2018-03-27T04:57:34.804Z,57.13
2018-03-27T04:58:38.004Z,53.85
2018-03-27T04:59:41.231Z,57.80
2018-03-27T05:00:44.707Z,55.85
2018-03-27T05:01:47.928Z,56.72
2018-03-27T05:02:51.172Z,57.88
2018-03-27T05:03:54.376Z,57.75
2018-03-27T05:04:57.589Z,55.80
2018-03-27T05:06:01.574Z,55.17
2018-03-27T05:07:05.810Z,56.90
2018-03-27T05:08:09.049Z,55.33
2018-03-27T05:09:12.265Z,58.75
2018-03-27T05:10:16.378Z,61.08
2018-03-27T05:11:19.599Z,56.88
2018-03-27T05:12:22.863Z,56.80
2018-03-27T05:13:26.073Z,58.05
2018-03-27T05:14:29.285Z,54.80
2018-03-27T05:15:33.273Z,55.20
2018-03-27T05:16:37.257Z,55.72
2018-03-27T05:17:40.495Z,55.50
2018-03-27T05:18:44.510Z,54.88
2018-03-27T05:19:47.800Z,52.50
2018-03-27T05:20:51.002Z,51.58
2018-03-27T05:21:54.236Z,52.70
2018-03-27T05:22:57.483Z,53.70
2018-03-27T05:24:00.690Z,49.72
2018-03-27T05:25:04.673Z,51.90
2018-03-27T05:26:08.663Z,50.47
2018-03-27T05:27:11.888Z,52.40
2018-03-27T05:28:15.096Z,47.08
2018-03-27T05:29:18.323Z,50.15
2018-03-27T05:30:22.328Z,52.42
2018-03-27T05:31:26.340Z,50.10
2018-03-27T05:32:30.307Z,52.65
2018-03-27T05:33:33.542Z,49.58
2018-03-27T05:34:36.785Z,50.22
2018-03-27T05:35:39.999Z,51.78
2018-03-27T05:36:43.331Z,54.13
2018-03-27T05:37:46.525Z,54.33
2018-03-27T05:38:49.748Z,55.75
2018-03-27T05:39:52.976Z,53.15
2018-03-27T05:40:56.245Z,54.42
2018-03-27T05:41:59.512Z,54.35
2018-03-27T05:43:02.726Z,52.97
2018-03-27T05:44:05.940Z,53.25
2018-03-27T05:45:09.938Z,51.35
2018-03-27T05:46:13.909Z,53.90
2018-03-27T05:47:17.163Z,50.67
2018-03-27T05:48:20.403Z,52.25
2018-03-27T05:49:24.491Z,52.95
2018-03-27T05:50:27.693Z,53.75
2018-03-27T05:51:31.684Z,50.22
2018-03-27T05:52:35.668Z,51.92
2018-03-27T05:53:38.906Z,53.67
2018-03-27T05:54:42.227Z,52.88
2018-03-27T05:55:45.680Z,52.50
2018-03-27T05:56:48.921Z,53.90
2018-03-27T05:57:52.917Z,53.60
2018-03-27T05:58:56.141Z,54.08
2018-03-27T05:59:59.382Z,53.08
2018-03-27T06:01:02.625Z,53.17
2018-03-27T06:02:05.857Z,54.15
2018-03-27T06:03:09.844Z,55.00
2018-03-27T06:04:13.064Z,52.05
2018-03-27T06:05:17.118Z,54.40
2018-03-27T06:06:20.304Z,50.47
2018-03-27T06:07:23.568Z,52.90
2018-03-27T06:08:26.772Z,52.83
2018-03-27T06:09:30.004Z,54.15
2018-03-27T06:10:33.242Z,54.65
2018-03-27T06:11:36.483Z,54.00
2018-03-27T06:12:39.704Z,50.92
2018-03-27T06:13:42.949Z,57.42
2018-03-27T06:14:46.176Z,54.78
2018-03-27T06:15:49.399Z,52.50
2018-03-27T06:16:52.607Z,52.03
2018-03-27T06:17:55.850Z,50.25
2018-03-27T06:18:59.836Z,55.25
2018-03-27T06:20:03.816Z,54.90
2018-03-27T06:21:07.053Z,54.90
2018-03-27T06:22:11.057Z,54.92
2018-03-27T06:23:14.270Z,54.30
2018-03-27T06:24:17.512Z,54.88
2018-03-27T06:25:20.795Z,54.45
2018-03-27T06:26:24.048Z,54.38
2018-03-27T06:27:27.240Z,54.38
2018-03-27T06:28:30.437Z,56.20
2018-03-27T06:29:33.694Z,52.97
2018-03-27T06:30:36.918Z,54.53
2018-03-27T06:31:40.400Z,56.50
2018-03-27T06:32:43.644Z,55.15
2018-03-27T06:33:46.958Z,55.72
2018-03-27T06:34:50.932Z,54.85
2018-03-27T06:35:54.159Z,56.55
2018-03-27T06:36:57.397Z,53.13
2018-03-27T06:38:00.761Z,56.40
2018-03-27T06:39:03.948Z,54.85
2018-03-27T06:40:07.161Z,56.50
2018-03-27T06:41:11.178Z,55.88
2018-03-27T06:42:14.408Z,53.97
2018-03-27T06:43:17.652Z,54.97
2018-03-27T06:44:20.881Z,61.90
2018-03-27T06:45:24.103Z,58.83
2018-03-27T06:46:28.081Z,55.03
2018-03-27T06:47:32.102Z,57.62
2018-03-27T06:48:36.081Z,56.80
2018-03-27T06:49:39.335Z,57.42
2018-03-27T06:50:42.552Z,56.78
2018-03-27T06:51:45.773Z,58.53
2018-03-27T06:52:49.031Z,55.60
2018-03-27T06:53:52.237Z,54.92
2018-03-27T06:54:55.477Z,54.05
2018-03-27T06:55:59.473Z,59.35
2018-03-27T06:57:02.687Z,57.72
2018-03-27T06:58:06.701Z,55.28
2018-03-27T06:59:09.909Z,57.10
2018-03-27T07:00:13.131Z,54.75
2018-03-27T07:01:16.396Z,59.03
2018-03-27T07:02:19.635Z,55.83
2018-03-27T07:03:23.636Z,60.35
2018-03-27T07:04:27.621Z,56.42
2018-03-27T07:05:30.883Z,59.00
2018-03-27T07:06:34.074Z,58.03
2018-03-27T07:07:37.277Z,57.85
2018-03-27T07:08:40.499Z,58.72
2018-03-27T07:09:43.854Z,57.55
2018-03-27T07:10:47.139Z,55.35
2018-03-27T07:11:50.291Z,54.70
2018-03-27T07:12:54.278Z,56.40
2018-03-27T07:13:57.509Z,54.70
2018-03-27T07:15:00.724Z,57.08
2018-03-27T07:16:03.962Z,55.42
2018-03-27T07:17:07.991Z,59.20
2018-03-27T07:18:11.222Z,58.05
2018-03-27T07:19:14.402Z,57.22
2018-03-27T07:20:18.436Z,58.65
2018-03-27T07:21:21.696Z,57.92
2018-03-27T07:22:24.887Z,58.85
2018-03-27T07:23:28.854Z,57.97
2018-03-27T07:24:32.887Z,58.35
2018-03-27T07:25:36.097Z,57.00
2018-03-27T07:26:39.318Z,61.75
2018-03-27T07:27:42.545Z,56.58
2018-03-27T07:28:45.797Z,58.05
2018-03-27T07:29:49.110Z,57.58
2018-03-27T07:30:52.328Z,57.90
2018-03-27T07:31:55.579Z,57.00
2018-03-27T07:32:58.796Z,56.85
2018-03-27T07:34:02.056Z,60.35
2018-03-27T07:35:05.299Z,59.05
2018-03-27T07:36:08.505Z,56.95
2018-03-27T07:37:11.721Z,60.22
2018-03-27T07:38:14.982Z,61.67
2018-03-27T07:39:18.186Z,63.92
2018-03-27T07:40:21.436Z,59.03
2018-03-27T07:41:24.728Z,59.03
2018-03-27T07:42:27.997Z,60.63
2018-03-27T07:43:31.206Z,58.53
2018-03-27T07:44:34.476Z,60.22
2018-03-27T07:45:37.675Z,56.50
2018-03-27T07:46:40.976Z,57.90
2018-03-27T07:47:44.213Z,57.47
2018-03-27T07:48:47.473Z,60.78
2018-03-27T07:49:50.796Z,57.70
2018-03-27T07:50:54.029Z,57.08
2018-03-27T07:51:57.250Z,59.47
2018-03-27T07:53:01.287Z,59.17
2018-03-27T07:54:05.454Z,58.92
2018-03-27T07:55:08.685Z,58.15
2018-03-27T07:56:11.899Z,62.45
2018-03-27T07:57:15.885Z,62.15
2018-03-27T07:58:19.145Z,58.97
2018-03-27T07:59:22.379Z,59.70
2018-03-27T08:00:26.357Z,57.03
2018-03-27T08:01:30.346Z,58.80
2018-03-27T08:02:33.566Z,57.72
2018-03-27T08:03:37.570Z,57.85
2018-03-27T08:04:41.535Z,56.65
2018-03-27T08:05:44.749Z,58.80
2018-03-27T08:06:47.978Z,56.35
2018-03-27T08:07:51.185Z,57.97
2018-03-27T08:08:54.513Z,56.78
2018-03-27T08:09:57.777Z,54.42
2018-03-27T08:11:01.803Z,58.10
2018-03-27T08:12:05.772Z,55.17
2018-03-27T08:13:09.800Z,54.47
2018-03-27T08:14:13.033Z,53.60
2018-03-27T08:15:16.250Z,55.55
2018-03-27T08:16:19.471Z,54.45
2018-03-27T08:17:22.719Z,55.47
2018-03-27T08:18:25.958Z,55.00
2018-03-27T08:19:29.282Z,59.97
2018-03-27T08:20:32.523Z,54.17
2018-03-27T08:21:35.764Z,56.97
2018-03-27T08:22:38.990Z,57.00
2018-03-27T08:23:42.249Z,56.80
2018-03-27T08:24:45.561Z,55.15
2018-03-27T08:25:48.750Z,54.15
2018-03-27T08:26:51.969Z,54.33
2018-03-27T08:27:55.237Z,53.05
2018-03-27T08:28:58.437Z,54.85
2018-03-27T08:30:01.674Z,52.70
2018-03-27T08:31:04.970Z,53.30
2018-03-27T08:32:08.177Z,51.22
2018-03-27T08:33:12.163Z,52.28
2018-03-27T08:34:16.184Z,53.13
2018-03-27T08:35:19.413Z,52.30
2018-03-27T08:36:22.719Z,52.45
2018-03-27T08:37:26.613Z,51.20
2018-03-27T08:38:29.852Z,52.35
2018-03-27T08:39:33.077Z,53.17
2018-03-27T08:40:36.304Z,54.55
2018-03-27T08:41:39.528Z,52.72
2018-03-27T08:42:42.768Z,53.87
2018-03-27T08:43:46.716Z,53.58
2018-03-27T08:44:49.969Z,52.67
2018-03-27T08:45:53.178Z,51.47
2018-03-27T08:46:56.415Z,49.92
2018-03-27T08:47:59.649Z,50.42
2018-03-27T08:49:02.858Z,51.25
2018-03-27T08:50:06.862Z,52.47
2018-03-27T08:51:10.826Z,52.55
2018-03-27T08:52:14.035Z,51.58
2018-03-27T08:53:18.008Z,50.47
2018-03-27T08:54:21.247Z,53.00
2018-03-27T08:55:24.478Z,52.20
2018-03-27T08:56:27.703Z,51.80
2018-03-27T08:57:30.936Z,53.05
2018-03-27T08:58:34.263Z,51.88
2018-03-27T08:59:38.245Z,52.15
2018-03-27T09:00:42.262Z,53.00
2018-03-27T09:01:45.447Z,52.28
2018-03-27T09:02:49.444Z,48.65
2018-03-27T09:03:53.437Z,49.33
2018-03-27T09:04:57.421Z,51.40
2018-03-27T09:06:00.632Z,46.20
2018-03-27T09:07:03.862Z,47.80
2018-03-27T09:08:07.081Z,46.90
2018-03-27T09:09:11.073Z,46.60
2018-03-27T09:10:14.990Z,46.88
2018-03-27T09:11:19.017Z,48.90
2018-03-27T09:12:22.231Z,47.40
2018-03-27T09:13:25.489Z,51.58
2018-03-27T09:14:28.695Z,46.42
2018-03-27T09:15:31.918Z,46.88
2018-03-27T09:16:35.913Z,48.65
2018-03-27T09:17:39.901Z,50.08
2018-03-27T09:18:43.121Z,49.42
2018-03-27T09:19:46.356Z,46.00
2018-03-27T09:20:49.575Z,48.60
2018-03-27T09:21:52.813Z,46.75
2018-03-27T09:22:56.120Z,48.97
2018-03-27T09:23:59.335Z,47.25
2018-03-27T09:25:02.589Z,46.63
2018-03-27T09:26:06.569Z,47.70
2018-03-27T09:27:09.798Z,44.55
2018-03-27T09:28:13.010Z,46.13
2018-03-27T09:29:16.233Z,44.90
2018-03-27T09:30:20.268Z,47.85
2018-03-27T09:31:23.496Z,48.00
2018-03-27T09:32:26.713Z,47.70
2018-03-27T09:33:30.096Z,49.75
2018-03-27T09:34:34.093Z,48.80
2018-03-27T09:35:38.808Z,47.50
2018-03-27T09:36:42.061Z,46.65
2018-03-27T09:37:45.304Z,46.33
2018-03-27T09:38:48.508Z,48.58
2018-03-27T09:39:51.725Z,47.60
2018-03-27T09:40:54.967Z,44.42
2018-03-27T09:41:58.164Z,45.67
2018-03-27T09:43:01.433Z,44.70
2018-03-27T09:44:04.675Z,42.20
2018-03-27T09:45:07.883Z,42.42
2018-03-27T09:46:11.130Z,42.35
2018-03-27T09:47:14.330Z,42.90
2018-03-27T09:48:18.440Z,41.55
2018-03-27T09:49:22.403Z,41.20
2018-03-27T09:50:25.837Z,41.53
2018-03-27T09:51:29.064Z,40.83
2018-03-27T09:52:32.293Z,43.17
2018-03-27T09:53:35.541Z,44.22
2018-03-27T09:54:38.766Z,40.40
2018-03-27T09:55:42.007Z,41.25
2018-03-27T09:56:45.291Z,43.17
2018-03-27T09:57:48.506Z,40.90
2018-03-27T09:58:51.702Z,44.65
2018-03-27T09:59:54.904Z,44.95
2018-03-27T10:00:58.134Z,44.28
2018-03-27T10:02:02.116Z,41.10
2018-03-27T10:03:05.331Z,46.37
2018-03-27T10:04:09.462Z,42.72
2018-03-27T10:05:12.699Z,42.17
2018-03-27T10:06:15.924Z,44.08
2018-03-27T10:07:19.185Z,41.97
2018-03-27T10:08:23.214Z,40.83
2018-03-27T10:09:26.429Z,41.13
2018-03-27T10:10:29.650Z,41.10
2018-03-27T10:11:33.667Z,40.95
2018-03-27T10:12:36.881Z,39.88
2018-03-27T10:13:40.106Z,39.05
2018-03-27T10:14:44.138Z,39.63
2018-03-27T10:15:47.409Z,40.38
2018-03-27T10:16:50.583Z,35.60
2018-03-27T10:17:54.571Z,37.50
2018-03-27T10:18:58.567Z,37.10
2018-03-27T10:20:02.578Z,39.85
2018-03-27T10:21:06.561Z,38.03
2018-03-27T10:22:09.819Z,38.40
2018-03-27T10:23:13.733Z,34.03
2018-03-27T10:24:16.958Z,33.72
2018-03-27T10:25:20.201Z,34.03
2018-03-27T10:26:23.430Z,30.37
2018-03-27T10:27:26.798Z,33.40
2018-03-27T10:28:29.960Z,31.83
2018-03-27T10:29:33.188Z,30.17
2018-03-27T10:30:36.442Z,33.08
2018-03-27T10:31:40.420Z,30.88
2018-03-27T10:32:43.650Z,32.35
2018-03-27T10:33:46.860Z,33.17
2018-03-27T10:34:50.082Z,33.65
2018-03-27T10:35:53.305Z,33.65
2018-03-27T10:36:56.528Z,30.60
2018-03-27T10:37:59.744Z,33.40
2018-03-27T10:39:03.740Z,30.67
2018-03-27T10:40:07.714Z,30.70
2018-03-27T10:41:10.938Z,30.48
2018-03-27T10:42:14.929Z,31.48
2018-03-27T10:43:18.160Z,29.15
2018-03-27T10:44:21.393Z,30.67
2018-03-27T10:45:25.415Z,28.90
2018-03-27T10:46:28.604Z,29.92
2018-03-27T10:47:31.824Z,29.48
2018-03-27T10:48:35.047Z,30.62
2018-03-27T10:49:38.265Z,29.30
2018-03-27T10:50:41.494Z,31.27
2018-03-27T10:51:44.740Z,30.62
2018-03-27T10:52:47.970Z,31.70
2018-03-27T10:53:51.962Z,30.55
2018-03-27T10:54:56.032Z,28.90
2018-03-27T10:55:59.225Z,29.15
2018-03-27T10:57:02.483Z,32.20
2018-03-27T10:58:05.738Z,32.67
2018-03-27T10:59:09.012Z,30.62
2018-03-27T11:00:12.295Z,30.77
2018-03-27T11:01:15.519Z,30.02
2018-03-27T11:02:18.768Z,31.42
2018-03-27T11:03:21.992Z,30.05
2018-03-27T11:04:25.258Z,28.45
2018-03-27T11:05:28.440Z,31.25
2018-03-27T11:06:31.696Z,31.15
2018-03-27T11:07:35.688Z,29.95
2018-03-27T11:08:39.685Z,34.05
2018-03-27T11:09:43.678Z,32.28
2018-03-27T11:10:47.690Z,28.60
2018-03-27T11:11:51.678Z,31.83
2018-03-27T11:12:54.999Z,31.40
2018-03-27T11:13:58.227Z,30.42
2018-03-27T11:15:01.448Z,31.87
2018-03-27T11:16:04.664Z,31.42
2018-03-27T11:17:07.889Z,33.30
2018-03-27T11:18:11.363Z,31.05
2018-03-27T11:19:14.584Z,31.27
2018-03-27T11:20:18.588Z,30.45
2018-03-27T11:21:21.799Z,30.92
2018-03-27T11:22:25.021Z,32.50
2018-03-27T11:23:28.343Z,31.80
2018-03-27T11:24:31.558Z,30.83
2018-03-27T11:25:34.811Z,31.85
2018-03-27T11:26:38.034Z,29.90
2018-03-27T11:27:41.321Z,30.02
2018-03-27T11:28:45.266Z,28.48
2018-03-27T11:29:49.243Z,29.25
2018-03-27T11:30:53.333Z,29.98
2018-03-27T11:31:56.556Z,29.05
2018-03-27T11:32:59.790Z,27.92
2018-03-27T11:34:03.035Z,29.85
2018-03-27T11:35:07.035Z,47.38
2018-03-27T11:36:10.287Z,38.10
2018-03-27T11:37:13.533Z,28.80
2018-03-27T11:38:16.776Z,31.25
2018-03-27T11:39:20.005Z,29.70
2018-03-27T11:40:23.225Z,28.25
2018-03-27T11:41:26.475Z,31.55
2018-03-27T11:42:29.704Z,27.25
2018-03-27T11:43:32.929Z,28.00
2018-03-27T11:44:36.211Z,28.08
2018-03-27T11:45:39.401Z,29.20
2018-03-27T11:46:42.632Z,27.40
2018-03-27T11:47:45.943Z,27.60
2018-03-27T11:48:49.161Z,27.87
2018-03-27T11:49:52.384Z,27.05
2018-03-27T11:50:55.616Z,27.73
2018-03-27T11:51:58.837Z,27.73
2018-03-27T11:53:02.851Z,25.98
2018-03-27T11:54:06.829Z,23.85
2018-03-27T11:55:10.852Z,25.88
2018-03-27T11:56:14.852Z,22.05
2018-03-27T11:57:18.081Z,22.62
2018-03-27T11:58:21.319Z,23.35
2018-03-27T11:59:24.559Z,22.23
2018-03-27T12:00:27.891Z,24.08
2018-03-27T12:01:31.130Z,24.52
2018-03-27T12:02:34.340Z,25.48
2018-03-27T12:03:38.338Z,24.15
2018-03-27T12:04:42.313Z,22.70
2018-03-27T12:05:45.549Z,24.00
2018-03-27T12:06:48.774Z,22.02
2018-03-27T12:07:52.038Z,21.52
2018-03-27T12:08:55.281Z,22.67
2018-03-27T12:09:58.521Z,22.95
2018-03-27T12:11:01.758Z,20.05
2018-03-27T12:12:04.988Z,19.40
2018-03-27T12:13:08.281Z,23.25
2018-03-27T12:14:11.497Z,21.23
2018-03-27T12:15:14.797Z,22.50
2018-03-27T12:16:18.779Z,22.05
2018-03-27T12:17:22.764Z,22.02
2018-03-27T12:18:26.728Z,21.70
2018-03-27T12:19:29.982Z,22.87
2018-03-27T12:20:33.191Z,20.30
2018-03-27T12:21:36.414Z,20.70
2018-03-27T12:22:40.419Z,21.42
2018-03-27T12:23:43.655Z,19.50
2018-03-27T12:24:46.928Z,18.85
2018-03-27T12:25:50.133Z,18.37
2018-03-27T12:26:53.364Z,18.92
2018-03-27T12:27:56.599Z,17.67
2018-03-27T12:28:59.816Z,18.20
2018-03-27T12:30:03.063Z,17.12
2018-03-27T12:31:06.290Z,18.48
2018-03-27T12:32:09.551Z,17.62
2018-03-27T12:33:13.558Z,19.35
2018-03-27T12:34:16.774Z,17.70
2018-03-27T12:35:20.375Z,19.58
2018-03-27T12:36:23.617Z,20.23
2018-03-27T12:37:26.848Z,21.35
2018-03-27T12:38:30.095Z,21.80
2018-03-27T12:39:33.362Z,21.85
2018-03-27T12:40:37.362Z,20.37
2018-03-27T12:41:41.352Z,21.60
2018-03-27T12:42:44.609Z,20.85
2018-03-27T12:43:47.849Z,21.17
2018-03-27T12:44:51.093Z,20.37
2018-03-27T12:45:54.314Z,19.10
2018-03-27T12:46:57.554Z,19.42
2018-03-27T12:48:00.791Z,19.77
2018-03-27T12:49:04.033Z,18.85
2018-03-27T12:50:07.248Z,19.50
2018-03-27T12:51:10.496Z,20.73
2018-03-27T12:52:13.733Z,20.75
2018-03-27T12:53:17.015Z,18.25
2018-03-27T12:54:20.200Z,20.12
2018-03-27T12:55:23.420Z,20.70
2018-03-27T12:56:26.651Z,18.83
2018-03-27T12:57:29.960Z,21.50
2018-03-27T12:58:33.145Z,20.10
2018-03-27T12:59:36.380Z,20.12
2018-03-27T13:00:39.619Z,19.50
2018-03-27T13:01:42.843Z,17.48
2018-03-27T13:02:46.829Z,18.00
2018-03-27T13:03:50.099Z,18.33
2018-03-27T13:04:53.328Z,18.37
2018-03-27T13:05:56.562Z,20.48
2018-03-27T13:06:59.819Z,19.62
2018-03-27T13:08:03.045Z,21.23
2018-03-27T13:09:07.078Z,21.27
2018-03-27T13:10:10.308Z,20.90
2018-03-27T13:11:13.647Z,19.73
2018-03-27T13:12:17.629Z,20.60
2018-03-27T13:13:20.861Z,19.77
2018-03-27T13:14:24.086Z,22.08
2018-03-27T13:15:28.091Z,21.73
2018-03-27T13:16:32.113Z,21.30
2018-03-27T13:17:35.358Z,20.35
2018-03-27T13:18:38.547Z,19.92
2018-03-27T13:19:42.535Z,20.33
2018-03-27T13:20:45.855Z,18.10
2018-03-27T13:21:49.832Z,19.52
2018-03-27T13:22:53.089Z,21.00
2018-03-27T13:23:56.301Z,20.92
2018-03-27T13:25:00.303Z,23.02
2018-03-27T13:26:04.359Z,23.98
2018-03-27T13:27:07.558Z,23.70
2018-03-27T13:28:10.794Z,21.23
2018-03-27T13:29:14.088Z,24.55
2018-03-27T13:30:17.370Z,24.30
2018-03-27T13:31:20.593Z,23.27
2018-03-27T13:32:23.897Z,22.80
2018-03-27T13:33:27.836Z,24.80
2018-03-27T13:34:31.054Z,23.58
2018-03-27T13:35:34.275Z,24.77
2018-03-27T13:36:38.265Z,22.98
2018-03-27T13:37:41.528Z,24.98
2018-03-27T13:38:44.753Z,23.52
2018-03-27T13:39:48.009Z,22.37
2018-03-27T13:40:51.264Z,22.48
2018-03-27T13:41:54.508Z,22.95